sensor_id;sensor_type;location;lat;lon;timestamp;P1;durP1;ratioP1;P2;durP2;ratioP2
51840;SDS011;37888;53.246;6.658;2023-07-08T00:11:35;3.95;;;2.38;;
51840;SDS011;37888;53.246;6.658;2023-07-08T00:25:32;2.80;;;2.25;;
51840;SDS011;37888;53.246;6.658;2023-07-08T00:28:32;3.35;;;2.25;;
51840;SDS011;37888;53.246;6.658;2023-07-08T00:34:45;5.82;;;2.25;;
51840;SDS011;37888;53.246;6.658;2023-07-08T00:37:46;4.25;;;2.40;;
51840;SDS011;37888;53.246;6.658;2023-07-08T00:42:48;3.13;;;2.28;;
51840;SDS011;37888;53.246;6.658;2023-07-08T01:48:48;3.95;;;2.40;;
51840;SDS011;37888;53.246;6.658;2023-07-08T01:52:33;3.83;;;2.15;;
51840;SDS011;37888;53.246;6.658;2023-07-08T05:17:39;3.55;;;2.75;;
51840;SDS011;37888;53.246;6.658;2023-07-08T05:20:25;5.63;;;2.83;;
51840;SDS011;37888;53.246;6.658;2023-07-08T05:27:07;3.33;;;2.50;;
51840;SDS011;37888;53.246;6.658;2023-07-08T05:33:36;2.60;;;2.30;;
51840;SDS011;37888;53.246;6.658;2023-07-08T05:36:55;3.60;;;2.50;;
51840;SDS011;37888;53.246;6.658;2023-07-08T07:09:05;1.90;;;1.40;;
51840;SDS011;37888;53.246;6.658;2023-07-08T07:26:22;1.55;;;1.10;;
51840;SDS011;37888;53.246;6.658;2023-07-08T07:33:51;2.00;;;1.38;;
51840;SDS011;37888;53.246;6.658;2023-07-08T08:24:03;4.47;;;2.40;;
51840;SDS011;37888;53.246;6.658;2023-07-08T08:26:30;4.50;;;2.20;;
51840;SDS011;37888;53.246;6.658;2023-07-08T08:28:56;2.75;;;1.55;;
51840;SDS011;37888;53.246;6.658;2023-07-08T08:31:22;1.52;;;1.17;;
51840;SDS011;37888;53.246;6.658;2023-07-08T08:33:48;1.95;;;1.45;;
51840;SDS011;37888;53.246;6.658;2023-07-08T08:36:19;3.30;;;1.48;;
51840;SDS011;37888;53.246;6.658;2023-07-08T08:38:46;2.25;;;1.20;;
51840;SDS011;37888;53.246;6.658;2023-07-08T08:41:12;2.22;;;1.30;;
51840;SDS011;37888;53.246;6.658;2023-07-08T08:43:42;2.00;;;1.30;;
51840;SDS011;37888;53.246;6.658;2023-07-08T08:48:53;4.07;;;1.50;;
51840;SDS011;37888;53.246;6.658;2023-07-08T08:51:24;2.17;;;1.40;;
51840;SDS011;37888;53.246;6.658;2023-07-08T08:53:52;2.47;;;1.10;;
51840;SDS011;37888;53.246;6.658;2023-07-08T08:56:24;2.10;;;1.13;;
51840;SDS011;37888;53.246;6.658;2023-07-08T09:01:35;1.45;;;1.00;;
51840;SDS011;37888;53.246;6.658;2023-07-08T09:04:20;2.77;;;1.37;;
51840;SDS011;37888;53.246;6.658;2023-07-08T09:06:50;1.80;;;1.23;;
51840;SDS011;37888;53.246;6.658;2023-07-08T09:09:18;2.95;;;1.30;;
51840;SDS011;37888;53.246;6.658;2023-07-08T09:12:32;2.22;;;1.30;;
51840;SDS011;37888;53.246;6.658;2023-07-08T09:23:26;2.55;;;1.58;;
51840;SDS011;37888;53.246;6.658;2023-07-08T09:26:01;1.77;;;0.93;;
51840;SDS011;37888;53.246;6.658;2023-07-08T09:35:38;3.38;;;1.05;;
51840;SDS011;37888;53.246;6.658;2023-07-08T09:42:09;1.95;;;0.88;;
51840;SDS011;37888;53.246;6.658;2023-07-08T09:44:39;2.40;;;1.15;;
51840;SDS011;37888;53.246;6.658;2023-07-08T09:50:54;1.33;;;0.93;;
51840;SDS011;37888;53.246;6.658;2023-07-08T09:53:44;3.42;;;1.40;;
51840;SDS011;37888;53.246;6.658;2023-07-08T09:56:31;2.63;;;1.30;;
51840;SDS011;37888;53.246;6.658;2023-07-08T09:58:57;1.53;;;1.00;;
51840;SDS011;37888;53.246;6.658;2023-07-08T10:01:24;4.37;;;1.20;;
51840;SDS011;37888;53.246;6.658;2023-07-08T10:04:09;2.72;;;1.50;;
51840;SDS011;37888;53.246;6.658;2023-07-08T10:06:44;3.08;;;1.50;;
51840;SDS011;37888;53.246;6.658;2023-07-08T10:09:35;2.03;;;1.23;;
51840;SDS011;37888;53.246;6.658;2023-07-08T10:15:27;17.45;;;3.10;;
51840;SDS011;37888;53.246;6.658;2023-07-08T10:18:21;2.50;;;1.30;;
51840;SDS011;37888;53.246;6.658;2023-07-08T10:28:58;1.45;;;1.02;;
51840;SDS011;37888;53.246;6.658;2023-07-08T10:34:43;1.90;;;1.30;;
51840;SDS011;37888;53.246;6.658;2023-07-08T10:40:00;4.03;;;1.33;;
51840;SDS011;37888;53.246;6.658;2023-07-08T10:42:52;2.65;;;1.10;;
51840;SDS011;37888;53.246;6.658;2023-07-08T10:45:44;2.03;;;1.08;;
51840;SDS011;37888;53.246;6.658;2023-07-08T10:53:54;2.95;;;1.35;;
51840;SDS011;37888;53.246;6.658;2023-07-08T11:07:51;2.17;;;1.25;;
51840;SDS011;37888;53.246;6.658;2023-07-08T11:10:32;1.38;;;1.10;;
51840;SDS011;37888;53.246;6.658;2023-07-08T11:13:10;2.22;;;1.10;;
51840;SDS011;37888;53.246;6.658;2023-07-08T11:15:46;1.65;;;1.13;;
51840;SDS011;37888;53.246;6.658;2023-07-08T11:18:25;3.78;;;1.38;;
51840;SDS011;37888;53.246;6.658;2023-07-08T11:21:07;6.28;;;1.40;;
51840;SDS011;37888;53.246;6.658;2023-07-08T11:23:38;1.55;;;1.15;;
51840;SDS011;37888;53.246;6.658;2023-07-08T11:28:56;2.88;;;1.40;;
51840;SDS011;37888;53.246;6.658;2023-07-08T11:31:24;1.63;;;1.30;;
51840;SDS011;37888;53.246;6.658;2023-07-08T11:33:51;2.03;;;1.30;;
51840;SDS011;37888;53.246;6.658;2023-07-08T11:36:19;4.53;;;1.25;;
51840;SDS011;37888;53.246;6.658;2023-07-08T11:38:47;1.85;;;1.27;;
51840;SDS011;37888;53.246;6.658;2023-07-08T11:41:15;5.78;;;1.23;;
51840;SDS011;37888;53.246;6.658;2023-07-08T11:43:50;2.95;;;1.70;;
51840;SDS011;37888;53.246;6.658;2023-07-08T11:46:20;1.45;;;1.02;;
51840;SDS011;37888;53.246;6.658;2023-07-08T11:48:51;3.03;;;1.38;;
51840;SDS011;37888;53.246;6.658;2023-07-08T11:51:25;3.15;;;1.35;;
51840;SDS011;37888;53.246;6.658;2023-07-08T11:53:59;1.70;;;1.30;;
51840;SDS011;37888;53.246;6.658;2023-07-08T11:56:48;2.28;;;1.40;;
51840;SDS011;37888;53.246;6.658;2023-07-08T11:59:20;1.95;;;1.40;;
51840;SDS011;37888;53.246;6.658;2023-07-08T12:04:52;2.67;;;1.55;;
51840;SDS011;37888;53.246;6.658;2023-07-08T12:07:37;4.03;;;1.40;;
51840;SDS011;37888;53.246;6.658;2023-07-08T12:10:10;4.68;;;1.77;;
51840;SDS011;37888;53.246;6.658;2023-07-08T12:12:42;2.97;;;2.03;;
51840;SDS011;37888;53.246;6.658;2023-07-08T12:21:17;2.22;;;1.48;;
51840;SDS011;37888;53.246;6.658;2023-07-08T12:23:44;3.28;;;1.60;;
51840;SDS011;37888;53.246;6.658;2023-07-08T12:26:11;3.13;;;1.77;;
51840;SDS011;37888;53.246;6.658;2023-07-08T12:28:40;1.85;;;1.58;;
51840;SDS011;37888;53.246;6.658;2023-07-08T12:31:13;5.63;;;1.90;;
51840;SDS011;37888;53.246;6.658;2023-07-08T12:33:41;2.10;;;1.55;;
51840;SDS011;37888;53.246;6.658;2023-07-08T12:36:09;3.38;;;1.75;;
51840;SDS011;37888;53.246;6.658;2023-07-08T12:38:40;2.63;;;1.25;;
51840;SDS011;37888;53.246;6.658;2023-07-08T12:41:11;5.00;;;1.52;;
51840;SDS011;37888;53.246;6.658;2023-07-08T12:43:39;2.45;;;1.45;;
51840;SDS011;37888;53.246;6.658;2023-07-08T12:46:15;1.60;;;1.33;;
51840;SDS011;37888;53.246;6.658;2023-07-08T12:48:43;1.40;;;1.10;;
51840;SDS011;37888;53.246;6.658;2023-07-08T12:51:13;3.25;;;1.40;;
51840;SDS011;37888;53.246;6.658;2023-07-08T12:53:41;2.78;;;1.55;;
51840;SDS011;37888;53.246;6.658;2023-07-08T12:56:08;2.75;;;1.48;;
51840;SDS011;37888;53.246;6.658;2023-07-08T12:58:36;2.75;;;1.52;;
51840;SDS011;37888;53.246;6.658;2023-07-08T13:01:19;3.78;;;1.70;;
51840;SDS011;37888;53.246;6.658;2023-07-08T13:04:59;3.38;;;1.40;;
51840;SDS011;37888;53.246;6.658;2023-07-08T13:07:36;2.00;;;1.40;;
51840;SDS011;37888;53.246;6.658;2023-07-08T13:10:13;2.33;;;1.30;;
51840;SDS011;37888;53.246;6.658;2023-07-08T13:12:49;1.75;;;1.35;;
51840;SDS011;37888;53.246;6.658;2023-07-08T13:15:21;2.55;;;1.48;;
51840;SDS011;37888;53.246;6.658;2023-07-08T13:17:50;3.22;;;1.85;;
51840;SDS011;37888;53.246;6.658;2023-07-08T13:20:16;2.45;;;1.40;;
51840;SDS011;37888;53.246;6.658;2023-07-08T13:22:46;2.40;;;1.55;;
51840;SDS011;37888;53.246;6.658;2023-07-08T13:25:27;1.95;;;1.70;;
51840;SDS011;37888;53.246;6.658;2023-07-08T13:27:58;2.25;;;1.70;;
51840;SDS011;37888;53.246;6.658;2023-07-08T13:30:27;4.25;;;1.33;;
51840;SDS011;37888;53.246;6.658;2023-07-08T13:32:55;2.05;;;1.58;;
51840;SDS011;37888;53.246;6.658;2023-07-08T13:35:38;2.92;;;1.63;;
51840;SDS011;37888;53.246;6.658;2023-07-08T13:42:00;3.05;;;2.13;;
51840;SDS011;37888;53.246;6.658;2023-07-08T13:45:30;4.05;;;2.90;;
51840;SDS011;37888;53.246;6.658;2023-07-08T13:48:34;4.53;;;3.90;;
51840;SDS011;37888;53.246;6.658;2023-07-08T13:54:37;8.48;;;2.90;;
51840;SDS011;37888;53.246;6.658;2023-07-08T13:57:38;4.45;;;2.38;;
51840;SDS011;37888;53.246;6.658;2023-07-08T14:00:08;3.78;;;2.38;;
51840;SDS011;37888;53.246;6.658;2023-07-08T14:02:45;2.30;;;1.92;;
51840;SDS011;37888;53.246;6.658;2023-07-08T14:07:45;2.88;;;2.00;;
51840;SDS011;37888;53.246;6.658;2023-07-08T14:10:12;2.00;;;1.65;;
51840;SDS011;37888;53.246;6.658;2023-07-08T14:12:38;4.60;;;2.42;;
51840;SDS011;37888;53.246;6.658;2023-07-08T14:15:06;2.95;;;2.13;;
51840;SDS011;37888;53.246;6.658;2023-07-08T14:17:33;2.70;;;2.20;;
51840;SDS011;37888;53.246;6.658;2023-07-08T14:19:59;4.25;;;2.50;;
51840;SDS011;37888;53.246;6.658;2023-07-08T14:22:29;4.82;;;2.28;;
51840;SDS011;37888;53.246;6.658;2023-07-08T14:25:07;3.05;;;1.75;;
51840;SDS011;37888;53.246;6.658;2023-07-08T14:27:35;6.40;;;1.98;;
51840;SDS011;37888;53.246;6.658;2023-07-08T14:30:08;2.15;;;1.75;;
51840;SDS011;37888;53.246;6.658;2023-07-08T14:32:35;2.40;;;1.90;;
51840;SDS011;37888;53.246;6.658;2023-07-08T14:37:41;2.50;;;1.95;;
51840;SDS011;37888;53.246;6.658;2023-07-08T14:40:39;3.75;;;2.03;;
51840;SDS011;37888;53.246;6.658;2023-07-08T14:43:19;2.42;;;2.00;;
51840;SDS011;37888;53.246;6.658;2023-07-08T14:46:08;2.30;;;2.00;;
51840;SDS011;37888;53.246;6.658;2023-07-08T14:48:57;3.60;;;2.08;;
51840;SDS011;37888;53.246;6.658;2023-07-08T14:51:23;4.50;;;1.85;;
51840;SDS011;37888;53.246;6.658;2023-07-08T14:53:55;3.00;;;2.13;;
51840;SDS011;37888;53.246;6.658;2023-07-08T14:56:29;2.65;;;1.85;;
51840;SDS011;37888;53.246;6.658;2023-07-08T14:58:58;3.90;;;1.88;;
51840;SDS011;37888;53.246;6.658;2023-07-08T15:01:24;2.13;;;1.80;;
51840;SDS011;37888;53.246;6.658;2023-07-08T15:03:53;4.68;;;1.90;;
51840;SDS011;37888;53.246;6.658;2023-07-08T15:06:52;3.70;;;2.10;;
51840;SDS011;37888;53.246;6.658;2023-07-08T15:09:24;3.85;;;2.10;;
51840;SDS011;37888;53.246;6.658;2023-07-08T15:11:50;3.58;;;2.10;;
51840;SDS011;37888;53.246;6.658;2023-07-08T15:17:17;2.53;;;2.17;;
51840;SDS011;37888;53.246;6.658;2023-07-08T15:36:51;2.83;;;2.27;;
51840;SDS011;37888;53.246;6.658;2023-07-08T15:39:24;2.88;;;2.30;;
51840;SDS011;37888;53.246;6.658;2023-07-08T15:41:50;2.78;;;2.38;;
51840;SDS011;37888;53.246;6.658;2023-07-08T15:44:20;4.05;;;2.50;;
51840;SDS011;37888;53.246;6.658;2023-07-08T15:46:47;3.28;;;2.53;;
51840;SDS011;37888;53.246;6.658;2023-07-08T15:49:16;2.88;;;2.58;;
51840;SDS011;37888;53.246;6.658;2023-07-08T15:51:46;3.97;;;2.38;;
51840;SDS011;37888;53.246;6.658;2023-07-08T15:54:24;3.83;;;2.40;;
51840;SDS011;37888;53.246;6.658;2023-07-08T15:56:56;3.15;;;2.20;;
51840;SDS011;37888;53.246;6.658;2023-07-08T15:59:25;3.10;;;2.25;;
51840;SDS011;37888;53.246;6.658;2023-07-08T16:02:02;3.17;;;2.35;;
51840;SDS011;37888;53.246;6.658;2023-07-08T16:04:42;2.15;;;1.90;;
51840;SDS011;37888;53.246;6.658;2023-07-08T16:07:17;4.38;;;2.40;;
51840;SDS011;37888;53.246;6.658;2023-07-08T16:10:32;6.57;;;2.30;;
51840;SDS011;37888;53.246;6.658;2023-07-08T16:13:55;5.20;;;2.22;;
51840;SDS011;37888;53.246;6.658;2023-07-08T16:16:35;2.45;;;2.10;;
51840;SDS011;37888;53.246;6.658;2023-07-08T16:19:25;3.50;;;2.40;;
51840;SDS011;37888;53.246;6.658;2023-07-08T16:21:55;8.70;;;2.47;;
51840;SDS011;37888;53.246;6.658;2023-07-08T16:24:24;2.85;;;2.10;;
51840;SDS011;37888;53.246;6.658;2023-07-08T16:27:00;2.92;;;2.20;;
51840;SDS011;37888;53.246;6.658;2023-07-08T16:29:33;4.05;;;2.70;;
51840;SDS011;37888;53.246;6.658;2023-07-08T16:31:59;3.72;;;2.50;;
51840;SDS011;37888;53.246;6.658;2023-07-08T16:34:25;2.70;;;2.03;;
51840;SDS011;37888;53.246;6.658;2023-07-08T16:36:50;3.50;;;2.45;;
51840;SDS011;37888;53.246;6.658;2023-07-08T16:39:16;4.90;;;2.73;;
51840;SDS011;37888;53.246;6.658;2023-07-08T16:41:42;2.93;;;2.47;;
51840;SDS011;37888;53.246;6.658;2023-07-08T16:44:12;3.72;;;1.98;;
51840;SDS011;37888;53.246;6.658;2023-07-08T16:46:43;4.82;;;2.33;;
51840;SDS011;37888;53.246;6.658;2023-07-08T16:49:14;5.20;;;2.30;;
51840;SDS011;37888;53.246;6.658;2023-07-08T16:51:40;3.83;;;2.15;;
51840;SDS011;37888;53.246;6.658;2023-07-08T16:54:16;6.45;;;2.45;;
51840;SDS011;37888;53.246;6.658;2023-07-08T16:56:45;3.20;;;2.28;;
51840;SDS011;37888;53.246;6.658;2023-07-08T16:59:21;3.25;;;2.00;;
51840;SDS011;37888;53.246;6.658;2023-07-08T17:01:47;4.05;;;2.13;;
51840;SDS011;37888;53.246;6.658;2023-07-08T17:04:13;2.85;;;2.28;;
51840;SDS011;37888;53.246;6.658;2023-07-08T17:09:12;2.58;;;2.08;;
51840;SDS011;37888;53.246;6.658;2023-07-08T17:11:39;3.00;;;2.35;;
51840;SDS011;37888;53.246;6.658;2023-07-08T17:14:05;3.75;;;2.47;;
51840;SDS011;37888;53.246;6.658;2023-07-08T17:16:33;3.10;;;2.33;;
51840;SDS011;37888;53.246;6.658;2023-07-08T17:19:03;2.60;;;2.00;;
51840;SDS011;37888;53.246;6.658;2023-07-08T17:21:29;2.88;;;2.00;;
51840;SDS011;37888;53.246;6.658;2023-07-08T17:23:55;2.33;;;2.00;;
51840;SDS011;37888;53.246;6.658;2023-07-08T17:26:23;2.80;;;2.50;;
51840;SDS011;37888;53.246;6.658;2023-07-08T17:28:49;2.53;;;2.33;;
51840;SDS011;37888;53.246;6.658;2023-07-08T17:31:19;3.50;;;2.08;;
51840;SDS011;37888;53.246;6.658;2023-07-08T17:33:48;3.10;;;2.53;;
51840;SDS011;37888;53.246;6.658;2023-07-08T17:36:20;4.20;;;2.40;;
51840;SDS011;37888;53.246;6.658;2023-07-08T17:39:14;3.75;;;2.67;;
51840;SDS011;37888;53.246;6.658;2023-07-08T17:41:40;3.50;;;2.10;;
51840;SDS011;37888;53.246;6.658;2023-07-08T17:44:10;3.90;;;2.30;;
51840;SDS011;37888;53.246;6.658;2023-07-08T17:46:36;5.05;;;2.10;;
51840;SDS011;37888;53.246;6.658;2023-07-08T17:49:02;2.92;;;1.90;;
51840;SDS011;37888;53.246;6.658;2023-07-08T17:51:33;3.17;;;2.05;;
51840;SDS011;37888;53.246;6.658;2023-07-08T17:54:00;5.60;;;2.30;;
51840;SDS011;37888;53.246;6.658;2023-07-08T17:59:00;3.47;;;2.30;;
51840;SDS011;37888;53.246;6.658;2023-07-08T18:01:29;2.95;;;1.92;;
51840;SDS011;37888;53.246;6.658;2023-07-08T18:03:55;2.95;;;2.20;;
51840;SDS011;37888;53.246;6.658;2023-07-08T18:06:21;2.35;;;1.90;;
51840;SDS011;37888;53.246;6.658;2023-07-08T18:08:47;4.35;;;2.20;;
51840;SDS011;37888;53.246;6.658;2023-07-08T18:11:14;2.17;;;1.98;;
51840;SDS011;37888;53.246;6.658;2023-07-08T18:13:43;3.05;;;2.10;;
51840;SDS011;37888;53.246;6.658;2023-07-08T18:16:11;2.35;;;2.10;;
51840;SDS011;37888;53.246;6.658;2023-07-08T18:18:41;2.28;;;2.00;;
51840;SDS011;37888;53.246;6.658;2023-07-08T18:21:28;3.13;;;2.60;;
51840;SDS011;37888;53.246;6.658;2023-07-08T18:23:57;3.17;;;2.22;;
51840;SDS011;37888;53.246;6.658;2023-07-08T18:26:27;2.77;;;2.10;;
51840;SDS011;37888;53.246;6.658;2023-07-08T18:28:57;4.43;;;2.30;;
51840;SDS011;37888;53.246;6.658;2023-07-08T18:31:32;2.33;;;2.05;;
51840;SDS011;37888;53.246;6.658;2023-07-08T18:34:00;2.78;;;2.22;;
51840;SDS011;37888;53.246;6.658;2023-07-08T18:36:29;2.97;;;2.03;;
51840;SDS011;37888;53.246;6.658;2023-07-08T18:38:57;3.13;;;2.00;;
51840;SDS011;37888;53.246;6.658;2023-07-08T18:41:24;3.65;;;2.35;;
51840;SDS011;37888;53.246;6.658;2023-07-08T18:43:53;3.22;;;2.35;;
51840;SDS011;37888;53.246;6.658;2023-07-08T18:46:20;3.55;;;2.20;;
51840;SDS011;37888;53.246;6.658;2023-07-08T18:48:46;2.72;;;2.38;;
51840;SDS011;37888;53.246;6.658;2023-07-08T18:51:25;4.13;;;2.50;;
51840;SDS011;37888;53.246;6.658;2023-07-08T18:54:03;5.55;;;2.42;;
51840;SDS011;37888;53.246;6.658;2023-07-08T18:56:28;7.37;;;2.70;;
51840;SDS011;37888;53.246;6.658;2023-07-08T18:58:54;10.30;;;2.60;;
51840;SDS011;37888;53.246;6.658;2023-07-08T19:01:22;7.40;;;2.85;;
51840;SDS011;37888;53.246;6.658;2023-07-08T19:03:49;5.07;;;2.60;;
51840;SDS011;37888;53.246;6.658;2023-07-08T19:06:16;4.60;;;1.85;;
51840;SDS011;37888;53.246;6.658;2023-07-08T19:08:44;6.40;;;2.63;;
51840;SDS011;37888;53.246;6.658;2023-07-08T19:11:17;2.75;;;2.20;;
51840;SDS011;37888;53.246;6.658;2023-07-08T19:13:44;4.50;;;2.30;;
51840;SDS011;37888;53.246;6.658;2023-07-08T19:16:11;4.65;;;2.10;;
51840;SDS011;37888;53.246;6.658;2023-07-08T19:18:38;6.47;;;2.35;;
51840;SDS011;37888;53.246;6.658;2023-07-08T19:21:04;3.13;;;2.00;;
51840;SDS011;37888;53.246;6.658;2023-07-08T19:23:37;4.32;;;2.63;;
51840;SDS011;37888;53.246;6.658;2023-07-08T19:26:13;5.03;;;2.30;;
51840;SDS011;37888;53.246;6.658;2023-07-08T19:28:45;3.85;;;2.28;;
51840;SDS011;37888;53.246;6.658;2023-07-08T19:31:32;3.65;;;2.30;;
51840;SDS011;37888;53.246;6.658;2023-07-08T19:33:58;5.32;;;2.00;;
51840;SDS011;37888;53.246;6.658;2023-07-08T19:36:30;4.28;;;2.50;;
51840;SDS011;37888;53.246;6.658;2023-07-08T19:38:58;3.95;;;2.30;;
51840;SDS011;37888;53.246;6.658;2023-07-08T19:41:27;3.20;;;2.20;;
51840;SDS011;37888;53.246;6.658;2023-07-08T19:43:55;8.80;;;2.42;;
51840;SDS011;37888;53.246;6.658;2023-07-08T19:46:23;4.00;;;2.33;;
51840;SDS011;37888;53.246;6.658;2023-07-08T19:48:49;4.90;;;2.60;;
51840;SDS011;37888;53.246;6.658;2023-07-08T19:51:15;7.17;;;2.50;;
51840;SDS011;37888;53.246;6.658;2023-07-08T19:53:41;6.30;;;2.28;;
51840;SDS011;37888;53.246;6.658;2023-07-08T19:56:14;3.70;;;2.60;;
51840;SDS011;37888;53.246;6.658;2023-07-08T19:58:42;7.10;;;2.20;;
51840;SDS011;37888;53.246;6.658;2023-07-08T20:01:09;3.88;;;2.42;;
51840;SDS011;37888;53.246;6.658;2023-07-08T20:03:35;4.23;;;2.20;;
51840;SDS011;37888;53.246;6.658;2023-07-08T20:06:23;4.23;;;2.60;;
51840;SDS011;37888;53.246;6.658;2023-07-08T20:08:50;6.20;;;2.30;;
51840;SDS011;37888;53.246;6.658;2023-07-08T20:11:16;3.95;;;2.40;;
51840;SDS011;37888;53.246;6.658;2023-07-08T20:13:45;2.30;;;2.00;;
51840;SDS011;37888;53.246;6.658;2023-07-08T20:16:19;7.32;;;2.38;;
51840;SDS011;37888;53.246;6.658;2023-07-08T20:18:47;3.50;;;2.45;;
51840;SDS011;37888;53.246;6.658;2023-07-08T20:21:14;3.28;;;2.40;;
51840;SDS011;37888;53.246;6.658;2023-07-08T20:23:40;6.68;;;2.65;;
51840;SDS011;37888;53.246;6.658;2023-07-08T20:28:52;3.17;;;2.20;;
51840;SDS011;37888;53.246;6.658;2023-07-08T20:31:18;2.50;;;2.20;;
51840;SDS011;37888;53.246;6.658;2023-07-08T20:33:44;4.93;;;2.40;;
51840;SDS011;37888;53.246;6.658;2023-07-08T20:36:14;4.75;;;2.38;;
51840;SDS011;37888;53.246;6.658;2023-07-08T20:38:45;5.93;;;2.50;;
51840;SDS011;37888;53.246;6.658;2023-07-08T20:41:11;7.50;;;2.45;;
51840;SDS011;37888;53.246;6.658;2023-07-08T20:43:37;4.25;;;2.50;;
51840;SDS011;37888;53.246;6.658;2023-07-08T20:46:03;2.40;;;2.17;;
51840;SDS011;37888;53.246;6.658;2023-07-08T20:48:36;3.65;;;2.40;;
51840;SDS011;37888;53.246;6.658;2023-07-08T20:51:02;6.07;;;2.47;;
51840;SDS011;37888;53.246;6.658;2023-07-08T20:53:29;6.07;;;2.45;;
51840;SDS011;37888;53.246;6.658;2023-07-08T20:55:55;3.17;;;2.20;;
51840;SDS011;37888;53.246;6.658;2023-07-08T20:58:22;2.43;;;2.23;;
51840;SDS011;37888;53.246;6.658;2023-07-08T21:00:49;3.70;;;2.50;;
51840;SDS011;37888;53.246;6.658;2023-07-08T21:03:19;5.50;;;2.80;;
51840;SDS011;37888;53.246;6.658;2023-07-08T21:05:47;3.97;;;2.13;;
51840;SDS011;37888;53.246;6.658;2023-07-08T21:08:24;4.05;;;2.70;;
51840;SDS011;37888;53.246;6.658;2023-07-08T21:10:55;3.15;;;2.72;;
51840;SDS011;37888;53.246;6.658;2023-07-08T21:13:21;5.07;;;2.85;;
51840;SDS011;37888;53.246;6.658;2023-07-08T21:15:48;3.50;;;2.70;;
51840;SDS011;37888;53.246;6.658;2023-07-08T21:18:15;3.75;;;2.95;;
51840;SDS011;37888;53.246;6.658;2023-07-08T21:20:44;3.10;;;2.78;;
51840;SDS011;37888;53.246;6.658;2023-07-08T21:23:17;5.43;;;2.40;;
51840;SDS011;37888;53.246;6.658;2023-07-08T21:25:45;2.92;;;2.55;;
51840;SDS011;37888;53.246;6.658;2023-07-08T21:31:05;5.57;;;2.92;;
51840;SDS011;37888;53.246;6.658;2023-07-08T21:33:31;2.55;;;2.33;;
51840;SDS011;37888;53.246;6.658;2023-07-08T21:35:57;2.77;;;2.50;;
51840;SDS011;37888;53.246;6.658;2023-07-08T21:38:24;2.70;;;2.30;;
51840;SDS011;37888;53.246;6.658;2023-07-08T21:40:52;2.92;;;2.40;;
51840;SDS011;37888;53.246;6.658;2023-07-08T21:43:20;3.22;;;2.38;;
51840;SDS011;37888;53.246;6.658;2023-07-08T21:45:48;4.03;;;2.47;;
51840;SDS011;37888;53.246;6.658;2023-07-08T21:48:15;3.38;;;2.30;;
51840;SDS011;37888;53.246;6.658;2023-07-08T21:50:49;3.72;;;2.15;;
51840;SDS011;37888;53.246;6.658;2023-07-08T21:53:27;4.28;;;2.65;;
51840;SDS011;37888;53.246;6.658;2023-07-08T21:55:57;4.30;;;2.85;;
51840;SDS011;37888;53.246;6.658;2023-07-08T21:58:24;4.05;;;2.63;;
51840;SDS011;37888;53.246;6.658;2023-07-08T22:00:52;2.85;;;2.55;;
51840;SDS011;37888;53.246;6.658;2023-07-08T22:03:20;3.00;;;2.70;;
51840;SDS011;37888;53.246;6.658;2023-07-08T22:05:49;6.22;;;2.90;;
51840;SDS011;37888;53.246;6.658;2023-07-08T22:08:16;3.38;;;3.00;;
51840;SDS011;37888;53.246;6.658;2023-07-08T22:10:44;4.28;;;2.80;;
51840;SDS011;37888;53.246;6.658;2023-07-08T22:15:51;4.10;;;3.30;;
51840;SDS011;37888;53.246;6.658;2023-07-08T22:18:26;5.15;;;3.05;;
51840;SDS011;37888;53.246;6.658;2023-07-08T22:20:59;3.60;;;3.15;;
51840;SDS011;37888;53.246;6.658;2023-07-08T22:23:34;2.97;;;2.70;;
51840;SDS011;37888;53.246;6.658;2023-07-08T22:26:04;3.67;;;3.13;;
51840;SDS011;37888;53.246;6.658;2023-07-08T22:28:33;3.28;;;2.97;;
51840;SDS011;37888;53.246;6.658;2023-07-08T22:30:59;4.20;;;3.17;;
51840;SDS011;37888;53.246;6.658;2023-07-08T22:33:31;3.42;;;2.70;;
51840;SDS011;37888;53.246;6.658;2023-07-08T22:36:00;3.20;;;2.87;;
51840;SDS011;37888;53.246;6.658;2023-07-08T22:38:29;3.78;;;3.17;;
51840;SDS011;37888;53.246;6.658;2023-07-08T22:41:08;3.80;;;3.30;;
51840;SDS011;37888;53.246;6.658;2023-07-08T22:43:39;3.03;;;2.70;;
51840;SDS011;37888;53.246;6.658;2023-07-08T22:46:09;4.50;;;3.13;;
51840;SDS011;37888;53.246;6.658;2023-07-08T22:48:35;4.07;;;3.10;;
51840;SDS011;37888;53.246;6.658;2023-07-08T22:51:14;4.28;;;2.70;;
51840;SDS011;37888;53.246;6.658;2023-07-08T22:53:46;3.33;;;2.90;;
51840;SDS011;37888;53.246;6.658;2023-07-08T22:56:23;4.60;;;2.90;;
51840;SDS011;37888;53.246;6.658;2023-07-08T22:58:55;3.85;;;2.90;;
51840;SDS011;37888;53.246;6.658;2023-07-08T23:01:24;4.85;;;3.20;;
51840;SDS011;37888;53.246;6.658;2023-07-08T23:03:53;3.80;;;2.70;;
51840;SDS011;37888;53.246;6.658;2023-07-08T23:07:00;3.45;;;3.00;;
51840;SDS011;37888;53.246;6.658;2023-07-08T23:09:32;4.60;;;2.95;;
51840;SDS011;37888;53.246;6.658;2023-07-08T23:12:03;3.20;;;2.88;;
51840;SDS011;37888;53.246;6.658;2023-07-08T23:14:31;4.30;;;2.97;;
51840;SDS011;37888;53.246;6.658;2023-07-08T23:16:57;2.83;;;2.53;;
51840;SDS011;37888;53.246;6.658;2023-07-08T23:19:26;3.43;;;3.00;;
51840;SDS011;37888;53.246;6.658;2023-07-08T23:21:51;2.83;;;2.60;;
51840;SDS011;37888;53.246;6.658;2023-07-08T23:24:17;4.68;;;3.05;;
51840;SDS011;37888;53.246;6.658;2023-07-08T23:26:52;3.90;;;2.90;;
51840;SDS011;37888;53.246;6.658;2023-07-08T23:29:19;5.32;;;3.08;;
51840;SDS011;37888;53.246;6.658;2023-07-08T23:31:47;3.83;;;3.42;;
51840;SDS011;37888;53.246;6.658;2023-07-08T23:34:17;3.20;;;2.90;;
51840;SDS011;37888;53.246;6.658;2023-07-08T23:36:46;5.47;;;3.15;;
51840;SDS011;37888;53.246;6.658;2023-07-08T23:39:19;4.85;;;3.20;;
51840;SDS011;37888;53.246;6.658;2023-07-08T23:41:50;4.70;;;3.28;;
51840;SDS011;37888;53.246;6.658;2023-07-08T23:44:17;5.38;;;3.10;;
51840;SDS011;37888;53.246;6.658;2023-07-08T23:46:45;3.13;;;2.80;;
51840;SDS011;37888;53.246;6.658;2023-07-08T23:49:30;3.47;;;3.00;;
51840;SDS011;37888;53.246;6.658;2023-07-08T23:52:02;3.78;;;3.28;;
51840;SDS011;37888;53.246;6.658;2023-07-08T23:54:33;4.13;;;3.72;;
51840;SDS011;37888;53.246;6.658;2023-07-08T23:57:01;4.10;;;2.90;;
51840;SDS011;37888;53.246;6.658;2023-07-08T23:59:30;3.72;;;3.00;;
